sensor_id;sensor_type;location;lat;lon;timestamp;pressure;altitude;pressure_sealevel;temperature;humidity
9187;BME280;7273;48.902;9.410;2023-05-07T00:00:24;97936.25;;;14.88;61.00
9187;BME280;7273;48.902;9.410;2023-05-07T00:02:50;97923.56;;;14.83;61.50
9187;BME280;7273;48.902;9.410;2023-05-07T00:05:16;97924.69;;;14.82;61.22
9187;BME280;7273;48.902;9.410;2023-05-07T00:07:41;97920.66;;;14.80;61.54
9187;BME280;7273;48.902;9.410;2023-05-07T00:10:07;97921.06;;;14.73;61.41
9187;BME280;7273;48.902;9.410;2023-05-07T00:12:33;97924.09;;;14.72;61.56
9187;BME280;7273;48.902;9.410;2023-05-07T00:15:01;97925.44;;;14.74;61.67
9187;BME280;7273;48.902;9.410;2023-05-07T00:17:26;97923.28;;;14.71;61.64
9187;BME280;7273;48.902;9.410;2023-05-07T00:19:52;97913.53;;;14.70;61.79
9187;BME280;7273;48.902;9.410;2023-05-07T00:22:18;97915.22;;;14.66;61.61
9187;BME280;7273;48.902;9.410;2023-05-07T00:24:44;97918.16;;;14.70;61.79
9187;BME280;7273;48.902;9.410;2023-05-07T00:27:09;97923.13;;;14.68;61.74
9187;BME280;7273;48.902;9.410;2023-05-07T00:29:35;97923.72;;;14.65;61.78
9187;BME280;7273;48.902;9.410;2023-05-07T00:32:02;97909.94;;;14.61;62.13
9187;BME280;7273;48.902;9.410;2023-05-07T00:34:27;97904.09;;;14.54;62.32
9187;BME280;7273;48.902;9.410;2023-05-07T00:36:53;97903.88;;;14.51;62.06
9187;BME280;7273;48.902;9.410;2023-05-07T00:39:18;97904.19;;;14.49;62.14
9187;BME280;7273;48.902;9.410;2023-05-07T00:41:44;97907.22;;;14.48;62.20
9187;BME280;7273;48.902;9.410;2023-05-07T00:44:10;97906.31;;;14.52;62.39
9187;BME280;7273;48.902;9.410;2023-05-07T00:46:36;97897.75;;;14.45;62.25
9187;BME280;7273;48.902;9.410;2023-05-07T00:49:01;97898.84;;;14.44;62.48
9187;BME280;7273;48.902;9.410;2023-05-07T00:51:28;97898.84;;;14.44;62.23
9187;BME280;7273;48.902;9.410;2023-05-07T00:53:54;97899.38;;;14.46;62.39
9187;BME280;7273;48.902;9.410;2023-05-07T00:56:21;97881.31;;;14.50;62.00
9187;BME280;7273;48.902;9.410;2023-05-07T00:58:48;97891.88;;;14.52;62.02
9187;BME280;7273;48.902;9.410;2023-05-07T01:01:14;97893.00;;;14.51;61.98
9187;BME280;7273;48.902;9.410;2023-05-07T01:03:42;97888.38;;;14.51;61.99
9187;BME280;7273;48.902;9.410;2023-05-07T01:06:09;97894.44;;;14.48;62.33
9187;BME280;7273;48.902;9.410;2023-05-07T01:08:37;97889.09;;;14.43;62.21
9187;BME280;7273;48.902;9.410;2023-05-07T01:11:05;97885.56;;;14.43;62.46
9187;BME280;7273;48.902;9.410;2023-05-07T01:13:32;97884.13;;;14.45;62.29
9187;BME280;7273;48.902;9.410;2023-05-07T01:15:58;97888.59;;;14.41;62.37
9187;BME280;7273;48.902;9.410;2023-05-07T01:18:24;97890.41;;;14.32;62.43
9187;BME280;7273;48.902;9.410;2023-05-07T01:20:52;97886.09;;;14.31;62.41
9187;BME280;7273;48.902;9.410;2023-05-07T01:23:18;97884.59;;;14.25;62.70
9187;BME280;7273;48.902;9.410;2023-05-07T01:25:51;97884.47;;;14.17;62.73
9187;BME280;7273;48.902;9.410;2023-05-07T01:28:16;97882.06;;;14.15;62.86
9187;BME280;7273;48.902;9.410;2023-05-07T01:30:44;97883.38;;;14.04;62.81
9187;BME280;7273;48.902;9.410;2023-05-07T01:33:13;97886.25;;;14.08;62.94
9187;BME280;7273;48.902;9.410;2023-05-07T01:35:43;97885.28;;;14.04;62.99
9187;BME280;7273;48.902;9.410;2023-05-07T01:38:11;97883.06;;;14.06;62.78
9187;BME280;7273;48.902;9.410;2023-05-07T01:40:37;97884.97;;;14.05;62.88
9187;BME280;7273;48.902;9.410;2023-05-07T01:43:03;97875.31;;;13.99;63.28
9187;BME280;7273;48.902;9.410;2023-05-07T01:45:30;97884.88;;;13.97;62.96
9187;BME280;7273;48.902;9.410;2023-05-07T01:47:58;97879.03;;;13.90;63.19
9187;BME280;7273;48.902;9.410;2023-05-07T01:50:23;97883.56;;;13.94;63.07
9187;BME280;7273;48.902;9.410;2023-05-07T01:52:50;97881.44;;;13.91;62.94
9187;BME280;7273;48.902;9.410;2023-05-07T01:55:16;97889.09;;;13.89;63.06
9187;BME280;7273;48.902;9.410;2023-05-07T01:57:41;97878.22;;;13.89;63.12
9187;BME280;7273;48.902;9.410;2023-05-07T02:00:07;97876.13;;;13.86;63.31
9187;BME280;7273;48.902;9.410;2023-05-07T02:02:34;97868.75;;;13.87;63.23
9187;BME280;7273;48.902;9.410;2023-05-07T02:04:59;97875.91;;;13.83;63.33
9187;BME280;7273;48.902;9.410;2023-05-07T02:07:26;97874.91;;;13.79;63.66
9187;BME280;7273;48.902;9.410;2023-05-07T02:09:51;97868.94;;;13.77;63.90
9187;BME280;7273;48.902;9.410;2023-05-07T02:12:17;97868.66;;;13.78;63.77
9187;BME280;7273;48.902;9.410;2023-05-07T02:14:42;97869.25;;;13.75;63.71
9187;BME280;7273;48.902;9.410;2023-05-07T02:17:08;97877.41;;;13.75;63.76
9187;BME280;7273;48.902;9.410;2023-05-07T02:19:33;97874.22;;;13.73;63.90
9187;BME280;7273;48.902;9.410;2023-05-07T02:21:59;97880.94;;;13.76;63.45
9187;BME280;7273;48.902;9.410;2023-05-07T02:24:24;97885.56;;;13.75;63.40
9187;BME280;7273;48.902;9.410;2023-05-07T02:26:49;97883.03;;;13.65;63.79
9187;BME280;7273;48.902;9.410;2023-05-07T02:29:15;97881.84;;;13.71;63.55
9187;BME280;7273;48.902;9.410;2023-05-07T02:31:40;97880.53;;;13.69;63.54
9187;BME280;7273;48.902;9.410;2023-05-07T02:34:06;97880.22;;;13.70;63.88
9187;BME280;7273;48.902;9.410;2023-05-07T02:36:31;97879.84;;;13.63;63.63
9187;BME280;7273;48.902;9.410;2023-05-07T02:38:56;97881.53;;;13.59;64.27
9187;BME280;7273;48.902;9.410;2023-05-07T02:41:22;97887.56;;;13.56;63.89
9187;BME280;7273;48.902;9.410;2023-05-07T02:43:47;97883.81;;;13.52;64.04
9187;BME280;7273;48.902;9.410;2023-05-07T02:46:12;97890.38;;;13.51;64.20
9187;BME280;7273;48.902;9.410;2023-05-07T02:48:38;97888.94;;;13.53;64.17
9187;BME280;7273;48.902;9.410;2023-05-07T02:51:04;97885.13;;;13.41;64.19
9187;BME280;7273;48.902;9.410;2023-05-07T02:53:30;97876.97;;;13.41;63.97
9187;BME280;7273;48.902;9.410;2023-05-07T02:55:57;97887.41;;;13.34;64.37
9187;BME280;7273;48.902;9.410;2023-05-07T02:58:23;97882.66;;;13.26;64.62
9187;BME280;7273;48.902;9.410;2023-05-07T03:00:48;97884.88;;;13.24;64.45
9187;BME280;7273;48.902;9.410;2023-05-07T03:03:14;97881.13;;;13.20;64.87
9187;BME280;7273;48.902;9.410;2023-05-07T03:05:40;97879.63;;;13.14;64.66
9187;BME280;7273;48.902;9.410;2023-05-07T03:08:06;97879.31;;;13.15;64.69
9187;BME280;7273;48.902;9.410;2023-05-07T03:10:31;97873.06;;;13.15;64.82
9187;BME280;7273;48.902;9.410;2023-05-07T03:12:57;97869.06;;;13.12;64.59
9187;BME280;7273;48.902;9.410;2023-05-07T03:15:22;97876.59;;;13.15;64.60
9187;BME280;7273;48.902;9.410;2023-05-07T03:17:48;97863.53;;;13.17;64.30
9187;BME280;7273;48.902;9.410;2023-05-07T03:20:13;97861.91;;;13.16;64.35
9187;BME280;7273;48.902;9.410;2023-05-07T03:22:39;97860.84;;;13.17;64.29
9187;BME280;7273;48.902;9.410;2023-05-07T03:25:05;97863.94;;;13.11;64.44
9187;BME280;7273;48.902;9.410;2023-05-07T03:27:30;97858.59;;;13.06;64.41
9187;BME280;7273;48.902;9.410;2023-05-07T03:29:56;97859.66;;;13.05;64.73
9187;BME280;7273;48.902;9.410;2023-05-07T03:32:21;97856.75;;;13.01;64.87
9187;BME280;7273;48.902;9.410;2023-05-07T03:34:47;97867.88;;;13.00;64.61
9187;BME280;7273;48.902;9.410;2023-05-07T03:37:12;97859.81;;;12.95;64.77
9187;BME280;7273;48.902;9.410;2023-05-07T03:39:37;97866.13;;;12.90;65.00
9187;BME280;7273;48.902;9.410;2023-05-07T03:42:03;97862.09;;;12.88;65.15
9187;BME280;7273;48.902;9.410;2023-05-07T03:44:28;97862.34;;;12.91;65.03
9187;BME280;7273;48.902;9.410;2023-05-07T03:46:54;97864.75;;;12.93;64.79
9187;BME280;7273;48.902;9.410;2023-05-07T03:49:20;97869.34;;;12.92;64.97
9187;BME280;7273;48.902;9.410;2023-05-07T03:51:46;97865.59;;;12.88;64.83
9187;BME280;7273;48.902;9.410;2023-05-07T03:54:11;97865.41;;;12.85;65.13
9187;BME280;7273;48.902;9.410;2023-05-07T03:56:36;97871.13;;;12.83;65.24
9187;BME280;7273;48.902;9.410;2023-05-07T03:59:02;97859.78;;;12.81;65.05
9187;BME280;7273;48.902;9.410;2023-05-07T04:01:27;97860.56;;;12.82;64.91
9187;BME280;7273;48.902;9.410;2023-05-07T04:03:53;97865.69;;;12.83;65.23
9187;BME280;7273;48.902;9.410;2023-05-07T04:06:18;97868.84;;;12.90;65.11
9187;BME280;7273;48.902;9.410;2023-05-07T04:08:44;97871.84;;;12.89;65.10
9187;BME280;7273;48.902;9.410;2023-05-07T04:11:09;97879.78;;;12.85;65.17
9187;BME280;7273;48.902;9.410;2023-05-07T04:13:34;97879.25;;;12.83;65.25
9187;BME280;7273;48.902;9.410;2023-05-07T04:16:01;97879.00;;;12.85;64.91
9187;BME280;7273;48.902;9.410;2023-05-07T04:18:27;97886.09;;;12.81;65.10
9187;BME280;7273;48.902;9.410;2023-05-07T04:20:53;97884.41;;;12.85;65.21
9187;BME280;7273;48.902;9.410;2023-05-07T04:23:19;97889.34;;;12.83;65.21
9187;BME280;7273;48.902;9.410;2023-05-07T04:25:44;97887.31;;;12.88;65.47
9187;BME280;7273;48.902;9.410;2023-05-07T04:28:10;97888.13;;;12.89;65.32
9187;BME280;7273;48.902;9.410;2023-05-07T04:30:36;97882.94;;;12.92;65.27
9187;BME280;7273;48.902;9.410;2023-05-07T04:33:02;97895.38;;;12.93;65.28
9187;BME280;7273;48.902;9.410;2023-05-07T04:35:27;97894.31;;;12.94;65.20
9187;BME280;7273;48.902;9.410;2023-05-07T04:37:52;97884.22;;;12.95;65.34
9187;BME280;7273;48.902;9.410;2023-05-07T04:40:18;97896.38;;;13.02;65.24
9187;BME280;7273;48.902;9.410;2023-05-07T04:42:43;97887.94;;;13.04;65.37
9187;BME280;7273;48.902;9.410;2023-05-07T04:45:09;97891.66;;;13.08;65.46
9187;BME280;7273;48.902;9.410;2023-05-07T04:47:35;97889.38;;;13.15;65.22
9187;BME280;7273;48.902;9.410;2023-05-07T04:50:01;97896.06;;;13.22;65.20
9187;BME280;7273;48.902;9.410;2023-05-07T04:52:26;97892.75;;;13.25;65.05
9187;BME280;7273;48.902;9.410;2023-05-07T04:54:52;97894.25;;;13.31;65.18
9187;BME280;7273;48.902;9.410;2023-05-07T04:57:17;97895.56;;;13.34;65.44
9187;BME280;7273;48.902;9.410;2023-05-07T04:59:43;97898.19;;;13.39;64.94
9187;BME280;7273;48.902;9.410;2023-05-07T05:02:10;97903.03;;;13.42;65.35
9187;BME280;7273;48.902;9.410;2023-05-07T05:04:36;97906.16;;;13.49;64.97
9187;BME280;7273;48.902;9.410;2023-05-07T05:07:02;97918.06;;;13.53;65.00
9187;BME280;7273;48.902;9.410;2023-05-07T05:09:29;97914.53;;;13.52;65.27
9187;BME280;7273;48.902;9.410;2023-05-07T05:11:55;97912.00;;;13.56;65.13
9187;BME280;7273;48.902;9.410;2023-05-07T05:14:20;97917.44;;;13.56;65.37
9187;BME280;7273;48.902;9.410;2023-05-07T05:16:46;97910.59;;;13.59;65.20
9187;BME280;7273;48.902;9.410;2023-05-07T05:19:11;97918.97;;;13.62;65.32
9187;BME280;7273;48.902;9.410;2023-05-07T05:21:36;97920.00;;;13.66;65.52
9187;BME280;7273;48.902;9.410;2023-05-07T05:24:02;97921.28;;;13.69;65.16
9187;BME280;7273;48.902;9.410;2023-05-07T05:26:27;97923.69;;;13.70;65.10
9187;BME280;7273;48.902;9.410;2023-05-07T05:28:53;97923.69;;;13.70;65.09
9187;BME280;7273;48.902;9.410;2023-05-07T05:31:18;97925.34;;;13.71;65.13
9187;BME280;7273;48.902;9.410;2023-05-07T05:33:43;97929.06;;;13.75;65.58
9187;BME280;7273;48.902;9.410;2023-05-07T05:36:10;97933.88;;;13.78;65.19
9187;BME280;7273;48.902;9.410;2023-05-07T05:38:36;97932.28;;;13.77;65.52
9187;BME280;7273;48.902;9.410;2023-05-07T05:41:01;97927.56;;;13.83;65.23
9187;BME280;7273;48.902;9.410;2023-05-07T05:43:27;97923.34;;;13.90;65.47
9187;BME280;7273;48.902;9.410;2023-05-07T05:45:52;97921.03;;;13.97;65.30
9187;BME280;7273;48.902;9.410;2023-05-07T05:48:17;97925.47;;;14.07;65.31
9187;BME280;7273;48.902;9.410;2023-05-07T05:50:43;97932.09;;;14.14;65.66
9187;BME280;7273;48.902;9.410;2023-05-07T05:53:08;97921.97;;;14.33;65.13
9187;BME280;7273;48.902;9.410;2023-05-07T05:55:34;97931.22;;;14.46;64.70
9187;BME280;7273;48.902;9.410;2023-05-07T05:58:02;97930.38;;;14.59;64.53
9187;BME280;7273;48.902;9.410;2023-05-07T06:00:29;97935.59;;;14.69;64.51
9187;BME280;7273;48.902;9.410;2023-05-07T06:02:54;97933.84;;;14.87;64.26
9187;BME280;7273;48.902;9.410;2023-05-07T06:05:20;97940.00;;;15.14;64.13
9187;BME280;7273;48.902;9.410;2023-05-07T06:07:46;97934.66;;;15.45;63.41
9187;BME280;7273;48.902;9.410;2023-05-07T06:10:11;97934.63;;;15.67;63.13
9187;BME280;7273;48.902;9.410;2023-05-07T06:12:37;97928.16;;;15.85;62.67
9187;BME280;7273;48.902;9.410;2023-05-07T06:15:03;97932.97;;;15.88;62.77
9187;BME280;7273;48.902;9.410;2023-05-07T06:17:28;97937.06;;;15.99;62.82
9187;BME280;7273;48.902;9.410;2023-05-07T06:19:53;97922.78;;;16.10;62.64
9187;BME280;7273;48.902;9.410;2023-05-07T06:22:19;97926.69;;;16.18;62.72
9187;BME280;7273;48.902;9.410;2023-05-07T06:24:44;97932.41;;;16.47;62.16
9187;BME280;7273;48.902;9.410;2023-05-07T06:27:10;97939.38;;;16.62;62.16
9187;BME280;7273;48.902;9.410;2023-05-07T06:29:35;97938.75;;;16.73;62.04
9187;BME280;7273;48.902;9.410;2023-05-07T06:32:08;97945.34;;;16.81;62.23
9187;BME280;7273;48.902;9.410;2023-05-07T06:34:33;97944.69;;;16.75;62.26
9187;BME280;7273;48.902;9.410;2023-05-07T06:36:59;97948.09;;;16.81;62.44
9187;BME280;7273;48.902;9.410;2023-05-07T06:39:24;97952.59;;;16.85;62.56
9187;BME280;7273;48.902;9.410;2023-05-07T06:41:49;97950.34;;;17.04;62.35
9187;BME280;7273;48.902;9.410;2023-05-07T06:44:15;97957.44;;;17.05;62.28
9187;BME280;7273;48.902;9.410;2023-05-07T06:46:41;97959.66;;;17.20;62.26
9187;BME280;7273;48.902;9.410;2023-05-07T06:49:06;97955.34;;;17.36;61.98
9187;BME280;7273;48.902;9.410;2023-05-07T06:51:32;97953.41;;;17.54;61.91
9187;BME280;7273;48.902;9.410;2023-05-07T06:53:57;97951.31;;;17.60;61.90
9187;BME280;7273;48.902;9.410;2023-05-07T06:56:23;97955.81;;;17.64;61.96
9187;BME280;7273;48.902;9.410;2023-05-07T06:58:48;97951.94;;;17.65;62.17
9187;BME280;7273;48.902;9.410;2023-05-07T07:01:14;97950.31;;;17.73;62.22
9187;BME280;7273;48.902;9.410;2023-05-07T07:03:40;97948.03;;;17.83;62.00
9187;BME280;7273;48.902;9.410;2023-05-07T07:06:05;97939.81;;;17.92;61.87
9187;BME280;7273;48.902;9.410;2023-05-07T07:08:31;97949.22;;;18.20;61.79
9187;BME280;7273;48.902;9.410;2023-05-07T07:10:57;97939.50;;;18.31;61.65
9187;BME280;7273;48.902;9.410;2023-05-07T07:13:23;97934.19;;;18.34;61.83
9187;BME280;7273;48.902;9.410;2023-05-07T07:15:48;97933.97;;;18.48;61.80
9187;BME280;7273;48.902;9.410;2023-05-07T07:18:14;97935.66;;;18.61;61.83
9187;BME280;7273;48.902;9.410;2023-05-07T07:20:39;97940.34;;;18.60;62.18
9187;BME280;7273;48.902;9.410;2023-05-07T07:23:04;97938.88;;;18.63;61.89
9187;BME280;7273;48.902;9.410;2023-05-07T07:25:30;97937.97;;;18.80;61.14
9187;BME280;7273;48.902;9.410;2023-05-07T07:27:55;97939.53;;;19.10;60.64
9187;BME280;7273;48.902;9.410;2023-05-07T07:30:21;97939.00;;;19.16;60.63
9187;BME280;7273;48.902;9.410;2023-05-07T07:32:46;97939.34;;;19.35;59.85
9187;BME280;7273;48.902;9.410;2023-05-07T07:35:12;97937.69;;;19.55;59.68
9187;BME280;7273;48.902;9.410;2023-05-07T07:37:37;97924.72;;;19.76;59.48
9187;BME280;7273;48.902;9.410;2023-05-07T07:40:02;97928.31;;;19.88;59.35
9187;BME280;7273;48.902;9.410;2023-05-07T07:42:28;97931.75;;;19.97;58.92
9187;BME280;7273;48.902;9.410;2023-05-07T07:44:54;97926.75;;;19.99;59.06
9187;BME280;7273;48.902;9.410;2023-05-07T07:47:20;97931.19;;;20.04;58.62
9187;BME280;7273;48.902;9.410;2023-05-07T07:49:45;97933.84;;;20.13;58.48
9187;BME280;7273;48.902;9.410;2023-05-07T07:52:11;97928.63;;;20.20;58.31
9187;BME280;7273;48.902;9.410;2023-05-07T07:54:36;97930.91;;;20.30;58.20
9187;BME280;7273;48.902;9.410;2023-05-07T07:57:02;97935.25;;;20.43;58.07
9187;BME280;7273;48.902;9.410;2023-05-07T07:59:27;97937.66;;;20.56;57.99
9187;BME280;7273;48.902;9.410;2023-05-07T08:01:52;97942.47;;;20.71;58.09
9187;BME280;7273;48.902;9.410;2023-05-07T08:04:21;97934.22;;;20.83;58.13
9187;BME280;7273;48.902;9.410;2023-05-07T08:06:46;97943.03;;;20.89;58.46
9187;BME280;7273;48.902;9.410;2023-05-07T08:09:11;97943.94;;;20.93;58.40
9187;BME280;7273;48.902;9.410;2023-05-07T08:11:38;97941.78;;;20.98;58.32
9187;BME280;7273;48.902;9.410;2023-05-07T08:14:03;97951.03;;;20.94;58.36
9187;BME280;7273;48.902;9.410;2023-05-07T08:16:29;97942.56;;;20.99;58.34
9187;BME280;7273;48.902;9.410;2023-05-07T08:18:54;97942.78;;;20.94;58.40
9187;BME280;7273;48.902;9.410;2023-05-07T08:21:19;97950.69;;;20.95;58.33
9187;BME280;7273;48.902;9.410;2023-05-07T08:23:45;97947.75;;;20.88;58.56
9187;BME280;7273;48.902;9.410;2023-05-07T08:26:11;97951.03;;;20.94;58.40
9187;BME280;7273;48.902;9.410;2023-05-07T08:28:36;97945.06;;;20.92;58.45
9187;BME280;7273;48.902;9.410;2023-05-07T08:31:01;97947.50;;;20.93;58.66
9187;BME280;7273;48.902;9.410;2023-05-07T08:33:27;97944.28;;;20.91;58.62
9187;BME280;7273;48.902;9.410;2023-05-07T08:35:53;97949.69;;;21.00;58.67
9187;BME280;7273;48.902;9.410;2023-05-07T08:38:18;97940.75;;;21.03;58.59
9187;BME280;7273;48.902;9.410;2023-05-07T08:40:44;97949.19;;;21.10;58.64
9187;BME280;7273;48.902;9.410;2023-05-07T08:43:12;97949.44;;;21.05;58.51
9187;BME280;7273;48.902;9.410;2023-05-07T08:45:39;97942.09;;;21.09;58.48
9187;BME280;7273;48.902;9.410;2023-05-07T08:48:09;97941.50;;;21.15;58.23
9187;BME280;7273;48.902;9.410;2023-05-07T08:50:36;97953.56;;;21.11;58.59
9187;BME280;7273;48.902;9.410;2023-05-07T08:53:04;97950.47;;;21.12;58.16
9187;BME280;7273;48.902;9.410;2023-05-07T08:55:30;97954.91;;;21.17;58.33
9187;BME280;7273;48.902;9.410;2023-05-07T08:57:56;97955.03;;;21.20;58.26
9187;BME280;7273;48.902;9.410;2023-05-07T09:00:21;97949.84;;;21.31;57.98
9187;BME280;7273;48.902;9.410;2023-05-07T09:02:47;97943.41;;;21.39;57.90
9187;BME280;7273;48.902;9.410;2023-05-07T09:05:13;97950.88;;;21.54;57.73
9187;BME280;7273;48.902;9.410;2023-05-07T09:07:38;97945.25;;;21.63;57.59
9187;BME280;7273;48.902;9.410;2023-05-07T09:10:04;97946.91;;;21.79;57.47
9187;BME280;7273;48.902;9.410;2023-05-07T09:12:30;97942.59;;;21.94;57.16
9187;BME280;7273;48.902;9.410;2023-05-07T09:14:56;97946.69;;;22.15;56.90
9187;BME280;7273;48.902;9.410;2023-05-07T09:17:21;97943.94;;;22.31;56.71
9187;BME280;7273;48.902;9.410;2023-05-07T09:19:46;97945.47;;;22.44;56.48
9187;BME280;7273;48.902;9.410;2023-05-07T09:22:12;97948.25;;;22.59;56.25
9187;BME280;7273;48.902;9.410;2023-05-07T09:24:38;97937.16;;;22.75;56.08
9187;BME280;7273;48.902;9.410;2023-05-07T09:27:04;97939.75;;;22.84;55.91
9187;BME280;7273;48.902;9.410;2023-05-07T09:29:31;97934.34;;;23.06;55.68
9187;BME280;7273;48.902;9.410;2023-05-07T09:32:06;97938.03;;;23.29;55.07
9187;BME280;7273;48.902;9.410;2023-05-07T09:34:32;97934.78;;;23.43;55.37
9187;BME280;7273;48.902;9.410;2023-05-07T09:37:02;97931.16;;;23.58;54.93
9187;BME280;7273;48.902;9.410;2023-05-07T09:39:49;97925.16;;;23.75;53.57
9187;BME280;7273;48.902;9.410;2023-05-07T09:42:15;97928.06;;;23.82;54.93
9187;BME280;7273;48.902;9.410;2023-05-07T09:44:43;97932.00;;;23.81;54.64
9187;BME280;7273;48.902;9.410;2023-05-07T09:47:10;97929.78;;;23.90;54.67
9187;BME280;7273;48.902;9.410;2023-05-07T09:49:40;97923.78;;;23.84;54.67
9187;BME280;7273;48.902;9.410;2023-05-07T09:52:07;97924.94;;;24.03;54.45
9187;BME280;7273;48.902;9.410;2023-05-07T09:54:36;97923.22;;;24.17;54.29
9187;BME280;7273;48.902;9.410;2023-05-07T09:57:04;97915.41;;;24.23;54.37
9187;BME280;7273;48.902;9.410;2023-05-07T09:59:31;97930.16;;;24.30;54.21
9187;BME280;7273;48.902;9.410;2023-05-07T10:01:58;97920.19;;;24.48;53.90
9187;BME280;7273;48.902;9.410;2023-05-07T10:04:27;97919.50;;;24.55;53.70
9187;BME280;7273;48.902;9.410;2023-05-07T10:06:53;97915.47;;;24.71;53.75
9187;BME280;7273;48.902;9.410;2023-05-07T10:09:20;97922.78;;;24.86;53.44
9187;BME280;7273;48.902;9.410;2023-05-07T10:11:48;97920.00;;;24.86;53.52
9187;BME280;7273;48.902;9.410;2023-05-07T10:14:14;97920.00;;;24.86;53.42
9187;BME280;7273;48.902;9.410;2023-05-07T10:16:40;97916.63;;;24.70;53.61
9187;BME280;7273;48.902;9.410;2023-05-07T10:19:07;97914.88;;;24.62;53.86
9187;BME280;7273;48.902;9.410;2023-05-07T10:21:39;97909.94;;;24.71;53.26
9187;BME280;7273;48.902;9.410;2023-05-07T10:24:13;97904.97;;;24.84;53.21
9187;BME280;7273;48.902;9.410;2023-05-07T10:26:44;97907.72;;;24.84;53.49
9187;BME280;7273;48.902;9.410;2023-05-07T10:34:38;97893.03;;;24.80;53.19
9187;BME280;7273;48.902;9.410;2023-05-07T10:37:04;97895.53;;;24.88;53.36
9187;BME280;7273;48.902;9.410;2023-05-07T10:39:30;97902.19;;;24.84;53.23
9187;BME280;7273;48.902;9.410;2023-05-07T10:41:56;97894.94;;;25.02;53.04
9187;BME280;7273;48.902;9.410;2023-05-07T10:44:28;97898.97;;;25.08;52.12
9187;BME280;7273;48.902;9.410;2023-05-07T10:47:15;97890.38;;;25.16;50.26
9187;BME280;7273;48.902;9.410;2023-05-07T10:52:21;97893.75;;;25.33;50.32
9187;BME280;7273;48.902;9.410;2023-05-07T10:54:46;97894.09;;;25.57;52.43
9187;BME280;7273;48.902;9.410;2023-05-07T10:59:56;97892.09;;;25.94;52.11
9187;BME280;7273;48.902;9.410;2023-05-07T11:02:21;97885.16;;;26.11;52.03
9187;BME280;7273;48.902;9.410;2023-05-07T11:05:19;97882.28;;;26.44;49.99
9187;BME280;7273;48.902;9.410;2023-05-07T11:08:02;97878.91;;;26.68;50.77
9187;BME280;7273;48.902;9.410;2023-05-07T11:13:13;97884.56;;;27.57;51.12
9187;BME280;7273;48.902;9.410;2023-05-07T11:15:41;97885.50;;;28.00;50.92
9187;BME280;7273;48.902;9.410;2023-05-07T11:18:08;97882.78;;;28.53;50.75
9187;BME280;7273;48.902;9.410;2023-05-07T11:20:47;97884.78;;;28.56;49.17
9187;BME280;7273;48.902;9.410;2023-05-07T11:26:02;97874.81;;;28.51;51.06
9187;BME280;7273;48.902;9.410;2023-05-07T11:28:29;97879.56;;;28.58;50.90
9187;BME280;7273;48.902;9.410;2023-05-07T11:30:56;97874.41;;;28.67;51.01
9187;BME280;7273;48.902;9.410;2023-05-07T11:33:22;97878.31;;;29.01;50.67
9187;BME280;7273;48.902;9.410;2023-05-07T11:35:47;97875.94;;;28.89;51.33
9187;BME280;7273;48.902;9.410;2023-05-07T11:38:13;97880.31;;;29.00;50.88
9187;BME280;7273;48.902;9.410;2023-05-07T11:40:57;97872.00;;;28.83;48.20
9187;BME280;7273;48.902;9.410;2023-05-07T11:43:24;97865.25;;;28.70;51.21
9187;BME280;7273;48.902;9.410;2023-05-07T11:45:49;97867.66;;;28.54;50.68
9187;BME280;7273;48.902;9.410;2023-05-07T11:48:16;97867.25;;;28.31;50.43
9187;BME280;7273;48.902;9.410;2023-05-07T11:50:59;97867.22;;;28.03;44.57
9187;BME280;7273;48.902;9.410;2023-05-07T11:53:26;97867.13;;;27.64;50.52
9187;BME280;7273;48.902;9.410;2023-05-07T11:55:55;97858.38;;;27.65;49.78
9187;BME280;7273;48.902;9.410;2023-05-07T11:58:22;97865.81;;;27.37;50.42
9187;BME280;7273;48.902;9.410;2023-05-07T12:00:49;97864.56;;;27.20;50.13
9187;BME280;7273;48.902;9.410;2023-05-07T12:03:15;97867.66;;;27.08;50.02
9187;BME280;7273;48.902;9.410;2023-05-07T12:05:40;97861.97;;;26.84;50.14
9187;BME280;7273;48.902;9.410;2023-05-07T12:08:07;97866.41;;;26.41;49.88
9187;BME280;7273;48.902;9.410;2023-05-07T12:10:32;97873.91;;;26.37;50.00
9187;BME280;7273;48.902;9.410;2023-05-07T12:12:58;97864.75;;;26.29;50.14
9187;BME280;7273;48.902;9.410;2023-05-07T12:15:23;97866.91;;;26.06;50.20
9187;BME280;7273;48.902;9.410;2023-05-07T12:17:49;97882.13;;;25.86;50.17
9187;BME280;7273;48.902;9.410;2023-05-07T12:20:14;97869.69;;;25.70;49.73
9187;BME280;7273;48.902;9.410;2023-05-07T12:22:40;97871.53;;;25.59;49.64
9187;BME280;7273;48.902;9.410;2023-05-07T12:25:06;97867.09;;;25.51;49.75
9187;BME280;7273;48.902;9.410;2023-05-07T12:27:32;97872.41;;;25.33;49.58
9187;BME280;7273;48.902;9.410;2023-05-07T12:29:57;97864.38;;;25.25;49.38
9187;BME280;7273;48.902;9.410;2023-05-07T12:32:24;97856.75;;;25.14;49.21
9187;BME280;7273;48.902;9.410;2023-05-07T12:34:50;97866.13;;;25.06;49.32
9187;BME280;7273;48.902;9.410;2023-05-07T12:37:16;97872.81;;;25.02;49.40
9187;BME280;7273;48.902;9.410;2023-05-07T12:39:47;97867.88;;;24.88;49.04
9187;BME280;7273;48.902;9.410;2023-05-07T12:42:16;97867.91;;;24.66;49.47
9187;BME280;7273;48.902;9.410;2023-05-07T12:44:45;97872.94;;;24.60;49.22
9187;BME280;7273;48.902;9.410;2023-05-07T12:47:11;97875.63;;;24.53;49.27
9187;BME280;7273;48.902;9.410;2023-05-07T12:49:37;97875.88;;;24.45;49.34
9187;BME280;7273;48.902;9.410;2023-05-07T12:52:04;97877.72;;;24.37;49.29
9187;BME280;7273;48.902;9.410;2023-05-07T12:54:33;97884.69;;;24.28;49.39
9187;BME280;7273;48.902;9.410;2023-05-07T12:57:06;97880.72;;;24.25;49.27
9187;BME280;7273;48.902;9.410;2023-05-07T12:59:39;97885.06;;;24.04;49.47
9187;BME280;7273;48.902;9.410;2023-05-07T13:02:05;97891.53;;;23.92;50.23
9187;BME280;7273;48.902;9.410;2023-05-07T13:04:31;97881.91;;;23.82;50.10
9187;BME280;7273;48.902;9.410;2023-05-07T13:06:56;97891.97;;;23.71;50.30
9187;BME280;7273;48.902;9.410;2023-05-07T13:09:22;97886.22;;;23.61;50.32
9187;BME280;7273;48.902;9.410;2023-05-07T13:11:47;97885.88;;;23.43;50.56
9187;BME280;7273;48.902;9.410;2023-05-07T13:14:13;97886.03;;;23.31;50.73
9187;BME280;7273;48.902;9.410;2023-05-07T13:16:38;97885.19;;;23.12;50.90
9187;BME280;7273;48.902;9.410;2023-05-07T13:19:03;97883.44;;;23.04;50.97
9187;BME280;7273;48.902;9.410;2023-05-07T13:21:29;97885.56;;;22.91;51.07
9187;BME280;7273;48.902;9.410;2023-05-07T13:23:56;97892.44;;;22.82;51.06
9187;BME280;7273;48.902;9.410;2023-05-07T13:26:23;97897.72;;;22.55;51.45
9187;BME280;7273;48.902;9.410;2023-05-07T13:28:48;97901.06;;;22.49;51.43
9187;BME280;7273;48.902;9.410;2023-05-07T13:31:13;97903.22;;;22.40;51.56
9187;BME280;7273;48.902;9.410;2023-05-07T13:33:39;97914.81;;;22.14;51.92